Time;durP1;ratioP1;P1;durP2;ratioP2;P2;SDS_P1;SDS_P2;PMS_P1;PMS_P2;Temp;Humidity;BMP_temperature;BMP_pressure;BME280_temperature;BME280_humidity;BME280_pressure;Samples;Min_cycle;Max_cycle;Signal;HPM_P1;HPM_P2
2022/06/14 00:00:55;;;;;;;10.93;5.78;;;;;;;;;;4205781;34;20129;-69
2022/06/14 00:03:22;;;;;;;8.82;5.53;;;;;;;;;;4205426;34;20210;-68
2022/06/14 00:35:38;;;;;;;8.55;4.78;;;;;;;;;;4170347;32;20104;-66
2022/06/14 00:38:04;;;;;;;14.55;5.15;;;;;;;;;;4197542;34;20126;-67
2022/06/14 00:40:35;;;;;;;6.32;4.95;;;;;;;;;;4185298;34;20473;-66
2022/06/14 00:43:04;;;;;;;6.97;5.20;;;;;;;;;;4191711;34;20122;-65
2022/06/14 00:45:30;;;;;;;9.50;5.47;;;;;;;;;;4178647;34;20137;-65
2022/06/14 00:48:05;;;;;;;6.25;4.68;;;;;;;;;;4177882;34;20567;-64
2022/06/14 00:50:38;;;;;;;9.93;4.75;;;;;;;;;;4177722;34;20206;-64
2022/06/14 00:53:13;;;;;;;5.50;4.32;;;;;;;;;;4182532;34;20536;-65
2022/06/14 00:56:34;;;;;;;6.30;5.15;;;;;;;;;;4178693;34;20094;-65
2022/06/14 00:59:23;;;;;;;7.95;4.22;;;;;;;;;;4175615;34;20516;-64
2022/06/14 01:01:53;;;;;;;7.25;3.95;;;;;;;;;;4178124;34;20109;-65
2022/06/14 01:04:26;;;;;;;8.45;4.03;;;;;;;;;;4190141;34;20502;-65
2022/06/14 01:07:14;;;;;;;6.28;3.37;;;;;;;;;;4178779;34;20109;-66
2022/06/14 01:09:50;;;;;;;5.25;4.43;;;;;;;;;;4187609;34;20134;-66
2022/06/14 01:12:21;;;;;;;6.37;3.90;;;;;;;;;;4177809;34;20098;-66
2022/06/14 01:15:01;;;;;;;6.72;3.70;;;;;;;;;;4176423;34;20552;-65
2022/06/14 01:17:28;;;;;;;6.70;4.70;;;;;;;;;;4165050;34;20298;-65
2022/06/14 01:19:55;;;;;;;6.85;4.00;;;;;;;;;;4176025;34;20123;-65
2022/06/14 01:22:21;;;;;;;9.95;4.20;;;;;;;;;;4176100;34;20101;-65
2022/06/14 01:24:47;;;;;;;5.43;4.35;;;;;;;;;;4177615;34;20121;-66
2022/06/14 01:27:15;;;;;;;5.97;4.50;;;;;;;;;;4177564;34;20203;-66
2022/06/14 01:29:45;;;;;;;8.98;4.75;;;;;;;;;;4165081;34;20110;-64
2022/06/14 01:32:12;;;;;;;10.98;5.35;;;;;;;;;;4175956;34;20111;-64
2022/06/14 01:34:41;;;;;;;7.55;4.32;;;;;;;;;;4177584;34;20193;-65
2022/06/14 01:37:08;;;;;;;7.87;4.55;;;;;;;;;;4183091;34;20098;-65
2022/06/14 01:39:35;;;;;;;9.13;4.30;;;;;;;;;;4190092;34;20090;-64
2022/06/14 01:42:13;;;;;;;6.35;4.03;;;;;;;;;;4189557;34;20149;-65
2022/06/14 01:44:41;;;;;;;5.68;4.25;;;;;;;;;;4191026;34;20118;-64
2022/06/14 01:47:25;;;;;;;6.93;4.95;;;;;;;;;;4190055;34;20098;-65
2022/06/14 01:53:05;;;;;;;8.30;4.85;;;;;;;;;;4191008;34;20514;-65
2022/06/14 01:56:32;;;;;;;7.68;5.28;;;;;;;;;;4189588;34;20122;-64
2022/06/14 01:59:17;;;;;;;8.65;4.97;;;;;;;;;;4161387;34;20111;-65
2022/06/14 02:02:00;;;;;;;8.68;4.30;;;;;;;;;;4149790;34;20122;-64
2022/06/14 02:04:44;;;;;;;10.75;4.25;;;;;;;;;;4182700;34;20121;-65
2022/06/14 02:07:21;;;;;;;9.18;4.80;;;;;;;;;;4189695;34;20087;-65
2022/06/14 02:10:08;;;;;;;5.12;4.12;;;;;;;;;;4189186;34;20122;-65
2022/06/14 02:12:43;;;;;;;14.13;4.20;;;;;;;;;;4175815;34;20522;-65
2022/06/14 02:15:09;;;;;;;6.75;4.18;;;;;;;;;;4177308;34;20115;-64
2022/06/14 02:17:41;;;;;;;6.28;4.12;;;;;;;;;;4176970;34;20138;-65
2022/06/14 02:20:29;;;;;;;9.68;5.07;;;;;;;;;;4176952;34;20109;-65
2022/06/14 02:23:01;;;;;;;4.80;4.30;;;;;;;;;;4164311;34;20177;-65
2022/06/14 02:25:34;;;;;;;5.35;3.90;;;;;;;;;;4177002;34;20157;-65
2022/06/14 02:28:06;;;;;;;7.57;4.10;;;;;;;;;;4177198;34;20138;-64
2022/06/14 02:30:37;;;;;;;8.18;3.55;;;;;;;;;;4176946;34;20205;-64
2022/06/14 02:33:20;;;;;;;8.45;4.40;;;;;;;;;;4176837;34;20112;-64
2022/06/14 02:36:07;;;;;;;8.25;4.32;;;;;;;;;;4164422;34;20112;-64
2022/06/14 02:38:43;;;;;;;5.47;3.85;;;;;;;;;;4177098;34;20126;-65
2022/06/14 02:41:26;;;;;;;6.85;3.83;;;;;;;;;;4164080;34;20091;-65
2022/06/14 02:44:11;;;;;;;5.20;3.37;;;;;;;;;;4176819;34;20487;-65
2022/06/14 02:46:37;;;;;;;;;;;;;;;;;;4164482;34;20439;-64
2022/06/14 02:49:29;;;;;;;6.25;3.67;;;;;;;;;;4175565;34;19998;-62
2022/06/14 02:52:35;;;;;;;11.48;3.60;;;;;;;;;;4176890;34;20118;-65
2022/06/14 02:55:11;;;;;;;;;;;;;;;;;;4175422;34;20110;-64
2022/06/14 02:57:42;;;;;;;9.23;3.70;;;;;;;;;;4164812;34;19989;-65
2022/06/14 03:00:09;;;;;;;4.85;3.50;;;;;;;;;;4178956;34;20141;-65
2022/06/14 03:02:42;;;;;;;5.72;3.08;;;;;;;;;;4178683;34;20110;-66
2022/06/14 03:05:12;;;;;;;5.25;3.80;;;;;;;;;;4165848;34;20218;-64
2022/06/14 03:08:00;;;;;;;4.70;3.72;;;;;;;;;;4178596;34;20100;-66
2022/06/14 03:10:33;;;;;;;9.80;3.25;;;;;;;;;;4178202;34;20157;-64
2022/06/14 03:13:13;;;;;;;8.32;3.60;;;;;;;;;;4178600;34;20154;-64
2022/06/14 03:15:39;;;;;;;4.30;3.58;;;;;;;;;;4177100;34;20134;-64
2022/06/14 03:18:23;;;;;;;10.27;4.00;;;;;;;;;;4178449;34;20142;-64
2022/06/14 03:20:59;;;;;;;6.75;3.35;;;;;;;;;;4178832;34;20114;-64
2022/06/14 03:23:49;;;;;;;6.43;3.12;;;;;;;;;;4178866;34;20145;-64
2022/06/14 03:26:28;;;;;;;4.40;3.40;;;;;;;;;;4165823;34;20222;-65
2022/06/14 03:29:05;;;;;;;8.73;3.25;;;;;;;;;;4178579;34;20543;-65
2022/06/14 03:31:36;;;;;;;3.62;2.97;;;;;;;;;;4178409;34;20121;-66
2022/06/14 03:34:09;;;;;;;3.15;2.80;;;;;;;;;;4178566;34;20117;-65
2022/06/14 03:36:36;;;;;;;3.25;2.37;;;;;;;;;;4169548;34;20101;-66
2022/06/14 03:39:09;;;;;;;2.17;1.98;;;;;;;;;;4190831;34;20101;-65
2022/06/14 03:41:37;;;;;;;5.70;2.50;;;;;;;;;;4192289;34;20189;-65
2022/06/14 03:44:05;;;;;;;3.80;2.53;;;;;;;;;;4192003;34;20514;-65
2022/06/14 03:46:57;;;;;;;5.07;2.30;;;;;;;;;;4192010;34;20126;-66
2022/06/14 03:49:25;;;;;;;8.77;2.87;;;;;;;;;;4187074;34;20118;-67
2022/06/14 03:52:11;;;;;;;5.20;2.50;;;;;;;;;;4190533;34;20144;-67
2022/06/14 03:54:45;;;;;;;10.45;3.60;;;;;;;;;;4190828;34;20141;-64
2022/06/14 03:57:24;;;;;;;9.47;2.73;;;;;;;;;;4190545;34;20111;-64
2022/06/14 03:59:57;;;;;;;4.90;2.67;;;;;;;;;;4190682;34;20102;-65
2022/06/14 04:02:54;;;;;;;3.65;2.67;;;;;;;;;;4192004;34;20197;-64
2022/06/14 04:05:34;;;;;;;7.78;2.47;;;;;;;;;;4191800;34;20218;-63
2022/06/14 04:08:22;;;;;;;5.80;2.20;;;;;;;;;;4189966;34;20484;-68
2022/06/14 04:10:57;;;;;;;3.72;2.20;;;;;;;;;;4191688;34;20126;-65
2022/06/14 04:13:45;;;;;;;5.15;2.03;;;;;;;;;;4192123;34;20113;-64
2022/06/14 04:16:26;;;;;;;6.53;2.80;;;;;;;;;;4191711;34;20129;-65
2022/06/14 04:19:10;;;;;;;4.53;2.25;;;;;;;;;;4191885;34;20103;-66
2022/06/14 04:21:57;;;;;;;4.50;2.30;;;;;;;;;;4191693;34;20506;-66
2022/06/14 04:24:33;;;;;;;5.18;2.28;;;;;;;;;;4190589;34;20129;-66
2022/06/14 04:27:11;;;;;;;3.80;2.58;;;;;;;;;;4190198;34;20114;-66
2022/06/14 04:29:40;;;;;;;2.35;2.12;;;;;;;;;;4191798;34;20530;-66
2022/06/14 04:32:13;;;;;;;9.93;2.60;;;;;;;;;;4190084;34;20540;-64
2022/06/14 04:34:43;;;;;;;5.40;2.78;;;;;;;;;;4191832;34;20178;-66
2022/06/14 04:37:13;;;;;;;8.93;6.25;;;;;;;;;;4191421;34;20133;-64
2022/06/14 04:39:45;;;;;;;8.35;4.93;;;;;;;;;;4179188;34;20094;-67
2022/06/14 04:42:19;;;;;;;13.85;9.80;;;;;;;;;;4190081;34;20122;-67
2022/06/14 04:44:51;;;;;;;9.27;6.93;;;;;;;;;;4190324;34;20114;-67
2022/06/14 04:48:07;;;;;;;11.82;10.52;;;;;;;;;;4190301;34;20206;-67
2022/06/14 04:50:44;;;;;;;25.23;18.50;;;;;;;;;;4189196;34;20125;-67
2022/06/14 04:53:17;;;;;;;26.48;17.73;;;;;;;;;;4191465;34;20109;-66
2022/06/14 04:55:50;;;;;;;22.17;15.18;;;;;;;;;;4191476;34;20560;-66
2022/06/14 04:58:32;;;;;;;17.98;14.30;;;;;;;;;;4191318;34;20138;-67
2022/06/14 05:01:07;;;;;;;9.48;4.32;;;;;;;;;;4189938;34;20128;-67
2022/06/14 05:03:38;;;;;;;3.40;3.10;;;;;;;;;;4191594;34;20091;-69
2022/06/14 05:06:27;;;;;;;12.02;9.52;;;;;;;;;;4190076;34;20114;-67
2022/06/14 05:09:00;;;;;;;8.52;6.43;;;;;;;;;;4189808;34;20193;-68
2022/06/14 05:11:54;;;;;;;4.28;2.70;;;;;;;;;;4190123;34;20205;-68
2022/06/14 05:14:25;;;;;;;7.12;3.95;;;;;;;;;;4191435;34;20201;-66
2022/06/14 05:17:14;;;;;;;5.72;3.05;;;;;;;;;;4190124;34;20106;-67
2022/06/14 05:19:45;;;;;;;8.00;2.60;;;;;;;;;;4178433;34;20447;-68
2022/06/14 05:22:17;;;;;;;4.35;3.55;;;;;;;;;;4189748;34;20121;-67
2022/06/14 05:24:44;;;;;;;4.90;2.70;;;;;;;;;;4191229;34;20118;-66
2022/06/14 05:27:44;;;;;;;10.90;2.55;;;;;;;;;;4191120;34;20218;-66
2022/06/14 05:30:31;;;;;;;4.07;2.03;;;;;;;;;;4191187;34;20132;-66
2022/06/14 05:33:16;;;;;;;5.62;2.12;;;;;;;;;;4190994;34;20124;-67
2022/06/14 05:36:04;;;;;;;4.60;2.17;;;;;;;;;;4189758;34;20557;-66
2022/06/14 05:38:57;;;;;;;3.15;2.60;;;;;;;;;;4178444;34;20106;-64
2022/06/14 05:41:32;;;;;;;2.35;2.15;;;;;;;;;;4191125;34;20160;-65
2022/06/14 05:44:04;;;;;;;5.00;3.20;;;;;;;;;;4191444;34;20102;-64
2022/06/14 05:46:34;;;;;;;5.32;3.03;;;;;;;;;;4191283;34;20242;-64
2022/06/14 05:49:07;;;;;;;2.28;2.00;;;;;;;;;;4178221;34;20595;-64
2022/06/14 05:52:00;;;;;;;6.03;4.60;;;;;;;;;;4189463;34;20115;-66
2022/06/14 05:54:36;;;;;;;2.55;2.35;;;;;;;;;;4175308;34;20118;-65
2022/06/14 05:57:18;;;;;;;3.80;2.12;;;;;;;;;;4189465;34;20141;-63
2022/06/14 05:59:49;;;;;;;8.68;2.87;;;;;;;;;;4189485;34;20194;-65
2022/06/14 06:02:54;;;;;;;4.75;3.15;;;;;;;;;;4189728;34;20200;-64
2022/06/14 06:05:35;;;;;;;12.60;5.90;;;;;;;;;;4161314;34;20115;-66
2022/06/14 06:08:22;;;;;;;3.03;2.12;;;;;;;;;;4161085;34;20440;-65
2022/06/14 06:10:49;;;;;;;5.45;3.65;;;;;;;;;;4169953;34;20126;-66
2022/06/14 06:13:27;;;;;;;3.10;2.80;;;;;;;;;;4177915;34;20090;-65
2022/06/14 06:16:02;;;;;;;5.68;4.90;;;;;;;;;;4189657;34;20107;-64
2022/06/14 06:18:56;;;;;;;7.93;4.22;;;;;;;;;;4178005;34;20108;-65
2022/06/14 06:21:37;;;;;;;4.62;3.33;;;;;;;;;;4190777;34;20506;-65
2022/06/14 06:24:24;;;;;;;7.40;3.78;;;;;;;;;;4190693;34;20105;-65
2022/06/14 06:26:53;;;;;;;3.08;2.62;;;;;;;;;;4189301;34;20102;-65
2022/06/14 06:29:49;;;;;;;2.20;2.00;;;;;;;;;;4189708;34;20116;-66
2022/06/14 06:32:17;;;;;;;4.78;2.80;;;;;;;;;;4177213;34;20103;-65
2022/06/14 06:34:43;;;;;;;4.60;2.45;;;;;;;;;;4190888;34;20185;-65
2022/06/14 06:37:19;;;;;;;5.93;2.80;;;;;;;;;;4188951;34;20091;-64
2022/06/14 06:39:52;;;;;;;3.92;2.30;;;;;;;;;;4189426;34;20206;-65
2022/06/14 06:42:37;;;;;;;10.05;3.70;;;;;;;;;;4188938;34;20206;-64
2022/06/14 06:45:07;;;;;;;6.67;2.47;;;;;;;;;;4190423;34;20101;-64
2022/06/14 06:47:45;;;;;;;2.42;2.22;;;;;;;;;;4190542;34;20258;-65
2022/06/14 06:50:15;;;;;;;5.15;2.55;;;;;;;;;;4190751;34;20130;-64
2022/06/14 06:53:06;;;;;;;4.70;2.30;;;;;;;;;;4189143;34;20133;-65
2022/06/14 06:55:38;;;;;;;3.03;2.40;;;;;;;;;;4189067;34;20133;-63
2022/06/14 06:58:10;;;;;;;6.00;2.70;;;;;;;;;;4190462;34;20106;-62
2022/06/14 07:00:38;;;;;;;3.10;2.67;;;;;;;;;;4166238;34;20101;-63
2022/06/14 07:03:34;;;;;;;8.13;3.80;;;;;;;;;;4189073;34;20428;-63
2022/06/14 07:06:02;;;;;;;5.47;2.70;;;;;;;;;;4174675;34;20126;-64
2022/06/14 07:08:44;;;;;;;3.12;2.60;;;;;;;;;;4188784;34;20198;-63
2022/06/14 07:11:14;;;;;;;2.50;2.30;;;;;;;;;;4190252;34;20817;-63
2022/06/14 07:13:49;;;;;;;4.32;2.42;;;;;;;;;;4188772;34;20110;-63
2022/06/14 07:16:26;;;;;;;3.45;2.53;;;;;;;;;;4188854;34;20130;-64
2022/06/14 07:19:09;;;;;;;9.02;2.70;;;;;;;;;;4190289;34;20212;-64
2022/06/14 07:21:41;;;;;;;5.47;2.65;;;;;;;;;;4190405;34;20114;-65
2022/06/14 07:24:15;;;;;;;13.77;3.03;;;;;;;;;;4190252;34;20127;-63
2022/06/14 07:26:45;;;;;;;5.80;2.95;;;;;;;;;;4188936;34;20110;-65
2022/06/14 07:29:19;;;;;;;12.07;2.97;;;;;;;;;;4188521;34;20212;-64
2022/06/14 07:31:50;;;;;;;4.78;2.97;;;;;;;;;;4189966;34;20451;-65
2022/06/14 07:34:17;;;;;;;4.18;3.10;;;;;;;;;;4190218;34;20536;-68
2022/06/14 07:36:58;;;;;;;4.10;3.28;;;;;;;;;;4188836;34;20087;-64
2022/06/14 07:39:33;;;;;;;5.35;2.70;;;;;;;;;;4190046;34;20202;-64
2022/06/14 07:42:07;;;;;;;5.70;3.30;;;;;;;;;;4190058;34;20451;-64
2022/06/14 07:44:51;;;;;;;3.58;3.03;;;;;;;;;;4191644;34;20107;-63
2022/06/14 07:47:29;;;;;;;7.75;3.08;;;;;;;;;;4191931;34;20205;-65
2022/06/14 07:50:11;;;;;;;5.43;3.25;;;;;;;;;;4190526;34;20528;-66
2022/06/14 07:52:43;;;;;;;5.28;3.45;;;;;;;;;;4179378;34;20095;-68
2022/06/14 07:55:18;;;;;;;2.62;2.30;;;;;;;;;;4190821;34;20121;-63
2022/06/14 07:57:46;;;;;;;2.42;2.22;;;;;;;;;;4192103;34;20102;-64
2022/06/14 08:03:16;;;;;;;5.18;2.37;;;;;;;;;;4179441;34;20114;-62
2022/06/14 08:05:46;;;;;;;6.53;2.10;;;;;;;;;;4176222;34;20144;-62
2022/06/14 08:08:16;;;;;;;5.93;1.85;;;;;;;;;;4186925;34;20141;-63
2022/06/14 08:10:47;;;;;;;6.53;1.87;;;;;;;;;;4188451;34;20462;-63
2022/06/14 08:13:17;;;;;;;6.45;2.37;;;;;;;;;;4191708;34;20102;-63
2022/06/14 08:15:52;;;;;;;4.45;2.10;;;;;;;;;;4190552;34;20121;-63
2022/06/14 08:18:30;;;;;;;;;;;;;;;;;;4187873;34;20118;-63
2022/06/14 08:21:03;;;;;;;2.55;1.90;;;;;;;;;;4188769;34;20001;-63
2022/06/14 08:23:35;;;;;;;3.70;1.98;;;;;;;;;;4191179;34;20482;-63
2022/06/14 08:26:07;;;;;;;5.62;1.70;;;;;;;;;;4191757;34;20133;-63
2022/06/14 08:28:40;;;;;;;6.22;2.12;;;;;;;;;;4190085;34;20117;-62
2022/06/14 08:31:15;;;;;;;9.40;2.20;;;;;;;;;;4190442;34;20109;-62
2022/06/14 08:33:51;;;;;;;4.43;2.10;;;;;;;;;;4179196;34;20133;-62
2022/06/14 08:36:21;;;;;;;6.03;1.60;;;;;;;;;;4178923;34;20118;-63
2022/06/14 08:39:01;;;;;;;2.20;2.00;;;;;;;;;;4178918;34;20197;-63
2022/06/14 08:41:35;;;;;;;2.22;1.90;;;;;;;;;;4190387;34;20099;-64
2022/06/14 08:44:20;;;;;;;2.62;1.90;;;;;;;;;;4191825;34;20101;-60
2022/06/14 08:47:15;;;;;;;2.60;1.73;;;;;;;;;;4179050;34;20604;-61
2022/06/14 08:50:11;;;;;;;2.00;1.83;;;;;;;;;;4191695;34;20543;-64
2022/06/14 08:52:52;;;;;;;2.47;1.90;;;;;;;;;;4189936;34;20113;-62
2022/06/14 08:55:46;;;;;;;2.72;2.00;;;;;;;;;;4189929;34;20094;-65
2022/06/14 08:58:35;;;;;;;2.00;1.70;;;;;;;;;;4190270;34;20596;-64
2022/06/14 09:01:15;;;;;;;4.65;2.00;;;;;;;;;;4189917;34;20126;-66
2022/06/14 09:04:29;;;;;;;1.90;1.48;;;;;;;;;;4190106;34;20505;-63
2022/06/14 09:07:08;;;;;;;5.47;1.80;;;;;;;;;;4165207;34;20106;-64
2022/06/14 09:10:03;;;;;;;3.78;1.80;;;;;;;;;;4189872;34;20114;-64
2022/06/14 09:12:44;;;;;;;5.00;3.05;;;;;;;;;;4189866;34;20494;-64
2022/06/14 09:15:16;;;;;;;8.70;2.95;;;;;;;;;;4191477;34;20106;-63
2022/06/14 09:18:01;;;;;;;6.15;1.83;;;;;;;;;;4190133;34;20189;-62
2022/06/14 09:20:35;;;;;;;1.65;1.55;;;;;;;;;;4191323;34;20202;-61
2022/06/14 09:23:10;;;;;;;2.50;2.10;;;;;;;;;;4190634;34;20106;-62
2022/06/14 09:25:36;;;;;;;2.53;2.25;;;;;;;;;;4189329;34;20221;-61
2022/06/14 09:28:46;;;;;;;3.30;2.10;;;;;;;;;;4189198;34;20111;-61
2022/06/14 09:31:16;;;;;;;3.42;2.80;;;;;;;;;;4181381;34;20984;-62
2022/06/14 09:34:04;;;;;;;2.97;1.95;;;;;;;;;;4188966;34;20547;-61
2022/06/14 09:36:58;;;;;;;4.10;1.87;;;;;;;;;;4188947;34;20114;-62
2022/06/14 09:39:26;;;;;;;2.20;2.00;;;;;;;;;;4189645;34;20197;-64
2022/06/14 09:42:12;;;;;;;4.87;1.73;;;;;;;;;;4191308;34;20218;-62
2022/06/14 09:45:02;;;;;;;2.50;1.90;;;;;;;;;;4189379;34;20118;-62
2022/06/14 09:47:51;;;;;;;3.80;1.90;;;;;;;;;;4189745;34;20458;-62
2022/06/14 09:50:43;;;;;;;3.37;1.62;;;;;;;;;;4189599;34;20128;-62
2022/06/14 09:53:12;;;;;;;1.85;1.75;;;;;;;;;;4189347;34;20485;-62
2022/06/14 09:56:05;;;;;;;1.77;1.67;;;;;;;;;;4190931;34;20132;-63
2022/06/14 09:58:57;;;;;;;1.90;1.77;;;;;;;;;;4191112;34;20106;-62
2022/06/14 10:01:28;;;;;;;5.35;2.00;;;;;;;;;;4189720;34;20101;-62
2022/06/14 10:04:02;;;;;;;6.72;1.80;;;;;;;;;;4189746;34;20137;-62
2022/06/14 10:07:10;;;;;;;7.70;1.90;;;;;;;;;;4188792;34;20201;-62
2022/06/14 10:09:55;;;;;;;4.22;1.67;;;;;;;;;;4189808;34;20459;-63
2022/06/14 10:12:26;;;;;;;1.67;1.58;;;;;;;;;;4189408;34;20144;-63
2022/06/14 10:15:20;;;;;;;1.67;1.58;;;;;;;;;;4190729;34;20547;-61
2022/06/14 10:17:59;;;;;;;4.35;2.03;;;;;;;;;;4190977;34;20106;-61
2022/06/14 10:20:49;;;;;;;5.28;1.83;;;;;;;;;;4189357;34;20527;-62
2022/06/14 10:23:32;;;;;;;1.98;1.58;;;;;;;;;;4190666;34;20118;-63
2022/06/14 10:28:54;;;;;;;4.32;1.75;;;;;;;;;;4190694;34;20121;-63
2022/06/14 10:31:57;;;;;;;7.85;1.70;;;;;;;;;;4190578;34;20102;-63
2022/06/14 10:34:54;;;;;;;2.72;2.10;;;;;;;;;;4167764;34;20099;-63
2022/06/14 10:37:26;;;;;;;2.10;1.90;;;;;;;;;;4189183;34;20467;-62
2022/06/14 10:40:06;;;;;;;2.08;1.77;;;;;;;;;;4190700;34;20682;-61
2022/06/14 10:42:39;;;;;;;2.17;1.52;;;;;;;;;;4190410;34;20642;-61
2022/06/14 10:45:16;;;;;;;2.70;1.90;;;;;;;;;;4189118;34;20101;-62
2022/06/14 10:48:10;;;;;;;5.07;1.87;;;;;;;;;;4188693;34;20114;-62
2022/06/14 10:50:57;;;;;;;7.50;2.10;;;;;;;;;;4189148;34;20096;-62
2022/06/14 10:53:22;;;;;;;8.30;2.12;;;;;;;;;;4190135;34;20115;-62
2022/06/14 10:56:07;;;;;;;2.97;1.92;;;;;;;;;;4190650;34;20532;-62
2022/06/14 10:59:07;;;;;;;16.80;2.12;;;;;;;;;;4190345;34;20130;-62
2022/06/14 11:01:48;;;;;;;2.45;1.65;;;;;;;;;;4168509;34;20229;-64
2022/06/14 11:04:14;;;;;;;2.85;1.52;;;;;;;;;;4188912;34;20114;-65
2022/06/14 11:06:55;;;;;;;1.80;1.62;;;;;;;;;;4188868;34;20115;-65
2022/06/14 11:09:29;;;;;;;2.47;1.73;;;;;;;;;;4190325;34;20193;-64
2022/06/14 11:11:58;;;;;;;4.22;1.50;;;;;;;;;;4190311;34;20277;-63
2022/06/14 11:14:37;;;;;;;3.50;1.52;;;;;;;;;;4190277;34;20121;-63
2022/06/14 11:17:34;;;;;;;7.28;2.10;;;;;;;;;;4190372;34;20114;-63
2022/06/14 11:20:00;;;;;;;1.42;1.33;;;;;;;;;;4192153;34;20165;-61
2022/06/14 11:22:39;;;;;;;1.55;1.45;;;;;;;;;;4192199;34;20098;-62
2022/06/14 11:25:18;;;;;;;2.72;1.60;;;;;;;;;;4192182;34;20113;-63
2022/06/14 11:27:55;;;;;;;5.32;1.98;;;;;;;;;;4192156;34;20086;-62
2022/06/14 11:30:33;;;;;;;6.50;1.90;;;;;;;;;;4192115;34;20542;-62
2022/06/14 11:33:05;;;;;;;5.00;1.80;;;;;;;;;;4192009;34;20118;-62
2022/06/14 11:35:46;;;;;;;5.78;1.80;;;;;;;;;;4192143;34;20169;-61
2022/06/14 11:38:26;;;;;;;2.62;2.10;;;;;;;;;;4190485;34;20122;-62
2022/06/14 11:40:58;;;;;;;7.03;2.20;;;;;;;;;;4190634;34;20122;-62
2022/06/14 11:43:43;;;;;;;8.25;2.03;;;;;;;;;;4191868;34;20213;-62
2022/06/14 11:46:15;;;;;;;3.33;1.90;;;;;;;;;;4179425;34;20513;-61
2022/06/14 11:49:15;;;;;;;5.97;1.90;;;;;;;;;;4192104;34;20114;-62
2022/06/14 11:52:19;;;;;;;3.60;1.95;;;;;;;;;;4179332;34;20941;-63
2022/06/14 11:55:03;;;;;;;2.35;1.83;;;;;;;;;;4190531;34;20515;-64
2022/06/14 11:57:42;;;;;;;7.50;2.22;;;;;;;;;;4192333;34;20207;-65
2022/06/14 12:00:25;;;;;;;4.78;1.90;;;;;;;;;;4190580;34;20132;-65
2022/06/14 12:03:07;;;;;;;5.93;1.77;;;;;;;;;;4179204;34;20090;-62
2022/06/14 12:05:56;;;;;;;6.57;1.87;;;;;;;;;;4191949;34;20129;-62
2022/06/14 12:08:55;;;;;;;0.90;0.90;;;;;;;;;;4191491;34;20122;-62
2022/06/14 12:11:25;;;;;;;4.28;1.58;;;;;;;;;;4191631;34;20106;-63
2022/06/14 12:14:45;;;;;;;1.98;1.87;;;;;;;;;;4175271;34;20525;-63
2022/06/14 12:17:31;;;;;;;3.15;1.60;;;;;;;;;;4191824;34;20109;-63
2022/06/14 12:20:07;;;;;;;;;;;;;;;;;;4191049;34;20451;-63
2022/06/14 12:22:43;;;;;;;2.35;1.35;;;;;;;;;;4191660;34;20422;-63
2022/06/14 12:28:07;;;;;;;3.35;2.40;;;;;;;;;;4191616;34;20033;-61
2022/06/14 12:30:33;;;;;;;2.78;1.23;;;;;;;;;;4189827;34;20129;-62
2022/06/14 12:33:06;;;;;;;3.03;2.08;;;;;;;;;;4190103;34;20130;-63
2022/06/14 12:35:41;;;;;;;5.78;2.28;;;;;;;;;;4190484;34;20110;-63
2022/06/14 12:38:20;;;;;;;2.33;1.80;;;;;;;;;;4190268;34;20455;-63
2022/06/14 12:41:00;;;;;;;1.37;1.27;;;;;;;;;;4179033;34;20117;-62
2022/06/14 12:43:30;;;;;;;2.28;1.75;;;;;;;;;;4190046;34;20150;-63
2022/06/14 12:45:59;;;;;;;6.97;2.47;;;;;;;;;;4190104;34;20467;-63
2022/06/14 12:48:35;;;;;;;3.30;1.87;;;;;;;;;;4190089;34;20094;-59
2022/06/14 12:51:01;;;;;;;4.68;2.67;;;;;;;;;;4191480;34;20474;-60
2022/06/14 12:53:46;;;;;;;4.10;1.55;;;;;;;;;;4190070;34;20169;-59
2022/06/14 12:56:32;;;;;;;3.30;2.03;;;;;;;;;;4191453;34;20103;-60
2022/06/14 12:59:16;;;;;;;2.83;1.77;;;;;;;;;;4190210;34;20133;-59
2022/06/14 13:01:58;;;;;;;6.93;3.50;;;;;;;;;;4189952;34;20114;-58
2022/06/14 13:04:29;;;;;;;4.62;2.30;;;;;;;;;;4190004;34;20670;-61
2022/06/14 13:07:28;;;;;;;9.23;3.97;;;;;;;;;;4178640;34;20108;-59
2022/06/14 13:10:31;;;;;;;7.82;2.90;;;;;;;;;;4191365;34;20087;-59
2022/06/14 13:13:15;;;;;;;3.37;1.65;;;;;;;;;;4189783;34;20113;-59
2022/06/14 13:16:06;;;;;;;6.10;2.65;;;;;;;;;;4191552;34;20105;-58
2022/06/14 13:18:44;;;;;;;3.10;1.40;;;;;;;;;;4189801;34;20205;-58
2022/06/14 13:21:22;;;;;;;1.55;1.42;;;;;;;;;;4191386;34;20200;-58
2022/06/14 13:24:03;;;;;;;4.60;2.60;;;;;;;;;;4191115;34;20273;-57
2022/06/14 13:27:00;;;;;;;2.15;1.90;;;;;;;;;;4191154;34;20509;-57
2022/06/14 13:29:38;;;;;;;5.68;2.08;;;;;;;;;;4191298;34;20133;-57
2022/06/14 13:32:34;;;;;;;2.65;2.00;;;;;;;;;;4191213;34;20598;-57
2022/06/14 13:35:28;;;;;;;1.33;1.23;;;;;;;;;;4191181;34;20087;-59
2022/06/14 13:38:15;;;;;;;2.25;2.00;;;;;;;;;;4189473;34;20514;-56
2022/06/14 13:41:07;;;;;;;4.15;1.87;;;;;;;;;;4189862;34;20090;-61
2022/06/14 13:43:50;;;;;;;4.68;2.03;;;;;;;;;;4183893;34;20110;-59
2022/06/14 13:46:20;;;;;;;3.15;1.83;;;;;;;;;;4178787;34;20113;-61
2022/06/14 13:48:53;;;;;;;3.08;2.03;;;;;;;;;;4190952;34;20546;-60
2022/06/14 13:51:32;;;;;;;6.43;3.78;;;;;;;;;;4189881;34;20125;-60
2022/06/14 13:54:03;;;;;;;10.82;2.55;;;;;;;;;;4191153;34;20446;-60
2022/06/14 13:56:38;;;;;;;1.70;1.33;;;;;;;;;;4189414;34;20129;-61
2022/06/14 13:59:18;;;;;;;5.75;1.70;;;;;;;;;;4190931;34;20152;-61
2022/06/14 14:01:56;;;;;;;3.70;2.72;;;;;;;;;;4189402;34;20124;-62
2022/06/14 14:04:29;;;;;;;1.30;1.20;;;;;;;;;;4189734;34;20146;-62
2022/06/14 14:07:19;;;;;;;1.55;1.45;;;;;;;;;;4190750;34;20110;-62
2022/06/14 14:10:13;;;;;;;2.28;1.90;;;;;;;;;;4190847;34;20631;-60
2022/06/14 14:13:04;;;;;;;2.95;2.12;;;;;;;;;;4189347;34;20447;-61
2022/06/14 14:15:45;;;;;;;5.70;2.37;;;;;;;;;;4186010;34;20113;-61
2022/06/14 14:18:37;;;;;;;7.75;2.90;;;;;;;;;;4178243;34;20109;-62
2022/06/14 14:21:23;;;;;;;1.40;1.30;;;;;;;;;;4182355;34;20126;-61
2022/06/14 14:24:07;;;;;;;1.65;1.55;;;;;;;;;;4189290;34;20101;-59
2022/06/14 14:26:59;;;;;;;5.07;1.90;;;;;;;;;;4189416;34;20113;-62
2022/06/14 14:30:05;;;;;;;6.10;2.37;;;;;;;;;;4175800;34;20875;-63
2022/06/14 14:32:41;;;;;;;2.08;1.92;;;;;;;;;;4182473;34;20467;-64
2022/06/14 14:35:18;;;;;;;1.50;1.40;;;;;;;;;;4177838;34;20110;-64
2022/06/14 14:38:07;;;;;;;1.52;1.42;;;;;;;;;;4189170;34;20087;-62
2022/06/14 14:41:32;;;;;;;0.95;0.90;;;;;;;;;;4188953;34;20118;-63
2022/06/14 14:43:34;;;;;;;2.55;1.90;;;;;;;;;;4168638;34;20102;-64
2022/06/14 14:46:22;;;;;;;5.15;2.00;;;;;;;;;;4152315;34;20432;-62
2022/06/14 14:48:54;;;;;;;1.98;1.83;;;;;;;;;;4185317;34;20130;-61
2022/06/14 14:51:44;;;;;;;4.20;1.83;;;;;;;;;;4176396;34;20676;-64
2022/06/14 14:54:18;;;;;;;1.55;1.45;;;;;;;;;;4168025;34;20129;-63
2022/06/14 14:57:03;;;;;;;2.03;1.70;;;;;;;;;;4188855;34;20119;-64
2022/06/14 14:59:37;;;;;;;4.43;2.28;;;;;;;;;;4190270;34;20128;-64
2022/06/14 15:05:25;;;;;;;2.62;2.05;;;;;;;;;;4176634;34;20108;-61
2022/06/14 15:07:54;;;;;;;1.50;1.40;;;;;;;;;;4175567;34;20106;-64
2022/06/14 15:10:23;;;;;;;2.42;1.92;;;;;;;;;;4175164;34;20198;-64
2022/06/14 15:12:51;;;;;;;9.02;2.15;;;;;;;;;;4175193;34;20673;-64
2022/06/14 15:15:46;;;;;;;2.35;2.00;;;;;;;;;;4176257;34;20819;-64
2022/06/14 15:21:07;;;;;;;2.15;1.23;;;;;;;;;;4187941;34;20222;-63
2022/06/14 15:23:41;;;;;;;2.08;1.90;;;;;;;;;;4188659;34;20439;-67
2022/06/14 15:26:19;;;;;;;4.30;2.15;;;;;;;;;;4177281;34;20599;-66
2022/06/14 15:28:51;;;;;;;3.08;2.00;;;;;;;;;;4188649;34;20204;-66
2022/06/14 15:31:26;;;;;;;3.65;2.28;;;;;;;;;;4188470;34;20153;-64
2022/06/14 15:33:56;;;;;;;1.83;1.67;;;;;;;;;;4190132;34;20628;-64
2022/06/14 15:36:30;;;;;;;16.90;2.37;;;;;;;;;;4188596;34;20105;-64
2022/06/14 15:39:19;;;;;;;1.55;1.45;;;;;;;;;;4190260;34;20094;-65
2022/06/14 15:41:45;;;;;;;6.90;2.35;;;;;;;;;;4189796;34;20113;-63
2022/06/14 15:44:11;;;;;;;2.97;2.20;;;;;;;;;;4188635;34;20211;-63
2022/06/14 15:46:47;;;;;;;5.15;2.55;;;;;;;;;;4189818;34;20115;-64
2022/06/14 15:49:16;;;;;;;4.70;2.12;;;;;;;;;;4189790;34;20533;-65
2022/06/14 15:51:42;;;;;;;3.83;1.80;;;;;;;;;;4188248;34;20595;-65
2022/06/14 15:54:39;;;;;;;8.00;3.00;;;;;;;;;;4188620;34;20122;-68
2022/06/14 15:57:33;;;;;;;8.05;2.67;;;;;;;;;;4189494;34;20107;-66
2022/06/14 16:00:17;;;;;;;10.98;3.05;;;;;;;;;;4177372;34;20133;-63
2022/06/14 16:02:54;;;;;;;5.32;2.35;;;;;;;;;;4189867;34;20522;-62
2022/06/14 16:05:24;;;;;;;3.50;2.10;;;;;;;;;;4190653;34;20161;-63
2022/06/14 16:07:53;;;;;;;6.15;3.00;;;;;;;;;;4192204;34;20531;-64
2022/06/14 16:10:32;;;;;;;5.15;2.37;;;;;;;;;;4191867;34;20121;-64
2022/06/14 16:13:01;;;;;;;12.52;3.08;;;;;;;;;;4192839;34;20122;-64
2022/06/14 16:15:42;;;;;;;10.88;2.97;;;;;;;;;;4192405;34;20118;-66
2022/06/14 16:18:18;;;;;;;4.32;2.78;;;;;;;;;;4179736;34;20125;-69
2022/06/14 16:21:13;;;;;;;6.05;2.78;;;;;;;;;;4181018;34;20126;-71
2022/06/14 16:23:41;;;;;;;7.12;3.35;;;;;;;;;;4191157;34;20102;-63
2022/06/14 16:26:49;;;;;;;7.70;2.40;;;;;;;;;;4192917;34;20102;-63
2022/06/14 16:29:14;;;;;;;5.90;3.00;;;;;;;;;;4190806;34;20540;-64
2022/06/14 16:32:04;;;;;;;7.50;2.90;;;;;;;;;;4192884;34;20105;-66
2022/06/14 16:34:42;;;;;;;14.82;2.62;;;;;;;;;;4192602;34;20115;-67
2022/06/14 16:37:30;;;;;;;8.70;2.83;;;;;;;;;;4190468;34;20125;-63
2022/06/14 16:40:11;;;;;;;9.70;2.80;;;;;;;;;;4191773;34;20090;-64
2022/06/14 16:42:42;;;;;;;3.95;2.65;;;;;;;;;;4189779;34;20126;-63